sensor_id;sensor_type;location;lat;lon;timestamp;P1;durP1;ratioP1;P2;durP2;ratioP2
62861;SDS011;48953;53.110;5.592;2023-05-20T00:00:08;13.95;;;5.18;;
62861;SDS011;48953;53.110;5.592;2023-05-20T00:02:35;9.25;;;4.35;;
62861;SDS011;48953;53.110;5.592;2023-05-20T00:05:01;7.15;;;3.45;;
62861;SDS011;48953;53.110;5.592;2023-05-20T00:07:27;13.75;;;4.15;;
62861;SDS011;48953;53.110;5.592;2023-05-20T00:09:53;9.82;;;4.30;;
62861;SDS011;48953;53.110;5.592;2023-05-20T00:12:19;10.77;;;4.40;;
62861;SDS011;48953;53.110;5.592;2023-05-20T00:14:45;9.75;;;4.50;;
62861;SDS011;48953;53.110;5.592;2023-05-20T00:17:11;9.95;;;4.13;;
62861;SDS011;48953;53.110;5.592;2023-05-20T00:19:44;12.07;;;4.70;;
62861;SDS011;48953;53.110;5.592;2023-05-20T00:22:10;13.00;;;4.70;;
62861;SDS011;48953;53.110;5.592;2023-05-20T00:24:36;13.52;;;4.57;;
62861;SDS011;48953;53.110;5.592;2023-05-20T00:27:02;12.60;;;4.70;;
62861;SDS011;48953;53.110;5.592;2023-05-20T00:29:29;13.02;;;4.90;;
62861;SDS011;48953;53.110;5.592;2023-05-20T00:31:55;8.10;;;3.80;;
62861;SDS011;48953;53.110;5.592;2023-05-20T00:34:21;14.90;;;4.75;;
62861;SDS011;48953;53.110;5.592;2023-05-20T00:36:47;10.57;;;4.35;;
62861;SDS011;48953;53.110;5.592;2023-05-20T00:39:13;10.38;;;3.95;;
62861;SDS011;48953;53.110;5.592;2023-05-20T00:41:40;11.05;;;3.97;;
62861;SDS011;48953;53.110;5.592;2023-05-20T00:44:05;14.60;;;4.30;;
62861;SDS011;48953;53.110;5.592;2023-05-20T00:46:32;10.95;;;4.57;;
62861;SDS011;48953;53.110;5.592;2023-05-20T00:48:58;11.57;;;4.63;;
62861;SDS011;48953;53.110;5.592;2023-05-20T00:51:24;11.75;;;4.63;;
62861;SDS011;48953;53.110;5.592;2023-05-20T00:53:50;9.55;;;4.50;;
62861;SDS011;48953;53.110;5.592;2023-05-20T00:56:16;14.85;;;4.60;;
62861;SDS011;48953;53.110;5.592;2023-05-20T00:58:43;11.13;;;4.68;;
62861;SDS011;48953;53.110;5.592;2023-05-20T01:01:09;9.73;;;4.38;;
62861;SDS011;48953;53.110;5.592;2023-05-20T01:03:35;9.05;;;4.07;;
62861;SDS011;48953;53.110;5.592;2023-05-20T01:06:01;8.48;;;3.95;;
62861;SDS011;48953;53.110;5.592;2023-05-20T01:08:27;10.73;;;4.93;;
62861;SDS011;48953;53.110;5.592;2023-05-20T01:11:05;11.23;;;4.30;;
62861;SDS011;48953;53.110;5.592;2023-05-20T01:13:32;6.00;;;3.20;;
62861;SDS011;48953;53.110;5.592;2023-05-20T01:16:00;9.65;;;4.43;;
62861;SDS011;48953;53.110;5.592;2023-05-20T01:18:28;11.35;;;4.50;;
62861;SDS011;48953;53.110;5.592;2023-05-20T01:20:55;8.88;;;3.78;;
62861;SDS011;48953;53.110;5.592;2023-05-20T01:23:29;9.57;;;3.40;;
62861;SDS011;48953;53.110;5.592;2023-05-20T01:30:54;11.60;;;4.55;;
62861;SDS011;48953;53.110;5.592;2023-05-20T01:33:21;12.30;;;5.78;;
62861;SDS011;48953;53.110;5.592;2023-05-20T01:35:48;9.80;;;4.28;;
62861;SDS011;48953;53.110;5.592;2023-05-20T01:38:14;7.95;;;4.30;;
62861;SDS011;48953;53.110;5.592;2023-05-20T01:40:41;13.05;;;5.18;;
62861;SDS011;48953;53.110;5.592;2023-05-20T01:43:07;18.90;;;5.25;;
62861;SDS011;48953;53.110;5.592;2023-05-20T01:45:34;11.70;;;4.70;;
62861;SDS011;48953;53.110;5.592;2023-05-20T01:48:01;14.88;;;5.30;;
62861;SDS011;48953;53.110;5.592;2023-05-20T01:50:27;9.38;;;4.72;;
62861;SDS011;48953;53.110;5.592;2023-05-20T01:52:53;17.15;;;5.15;;
62861;SDS011;48953;53.110;5.592;2023-05-20T01:55:19;14.20;;;5.32;;
62861;SDS011;48953;53.110;5.592;2023-05-20T01:57:45;10.75;;;4.85;;
62861;SDS011;48953;53.110;5.592;2023-05-20T02:00:11;13.43;;;5.85;;
62861;SDS011;48953;53.110;5.592;2023-05-20T02:02:37;9.52;;;5.18;;
62861;SDS011;48953;53.110;5.592;2023-05-20T02:05:03;11.40;;;4.72;;
62861;SDS011;48953;53.110;5.592;2023-05-20T02:07:29;10.32;;;5.57;;
62861;SDS011;48953;53.110;5.592;2023-05-20T02:09:55;9.38;;;5.38;;
62861;SDS011;48953;53.110;5.592;2023-05-20T02:12:21;11.77;;;5.65;;
62861;SDS011;48953;53.110;5.592;2023-05-20T02:14:47;12.40;;;5.40;;
62861;SDS011;48953;53.110;5.592;2023-05-20T02:17:20;12.38;;;5.88;;
62861;SDS011;48953;53.110;5.592;2023-05-20T02:19:46;12.93;;;5.40;;
62861;SDS011;48953;53.110;5.592;2023-05-20T02:22:13;13.77;;;5.45;;
62861;SDS011;48953;53.110;5.592;2023-05-20T02:24:39;13.57;;;5.60;;
62861;SDS011;48953;53.110;5.592;2023-05-20T02:27:07;13.00;;;5.85;;
62861;SDS011;48953;53.110;5.592;2023-05-20T02:29:33;10.95;;;5.25;;
62861;SDS011;48953;53.110;5.592;2023-05-20T02:31:59;15.77;;;6.50;;
62861;SDS011;48953;53.110;5.592;2023-05-20T02:34:26;15.80;;;6.55;;
62861;SDS011;48953;53.110;5.592;2023-05-20T02:36:52;10.55;;;4.95;;
62861;SDS011;48953;53.110;5.592;2023-05-20T02:39:18;14.82;;;6.28;;
62861;SDS011;48953;53.110;5.592;2023-05-20T02:41:44;14.63;;;6.40;;
62861;SDS011;48953;53.110;5.592;2023-05-20T02:44:10;16.70;;;6.38;;
62861;SDS011;48953;53.110;5.592;2023-05-20T02:46:36;15.88;;;5.82;;
62861;SDS011;48953;53.110;5.592;2023-05-20T02:49:02;13.40;;;6.22;;
62861;SDS011;48953;53.110;5.592;2023-05-20T02:51:28;8.95;;;5.85;;
62861;SDS011;48953;53.110;5.592;2023-05-20T02:53:56;11.20;;;5.72;;
62861;SDS011;48953;53.110;5.592;2023-05-20T02:56:22;12.75;;;6.22;;
62861;SDS011;48953;53.110;5.592;2023-05-20T02:58:48;10.68;;;5.07;;
62861;SDS011;48953;53.110;5.592;2023-05-20T03:01:14;10.43;;;5.95;;
62861;SDS011;48953;53.110;5.592;2023-05-20T03:03:41;12.52;;;6.32;;
62861;SDS011;48953;53.110;5.592;2023-05-20T03:06:07;11.07;;;5.95;;
62861;SDS011;48953;53.110;5.592;2023-05-20T03:08:33;12.48;;;5.80;;
62861;SDS011;48953;53.110;5.592;2023-05-20T03:10:59;14.55;;;7.15;;
62861;SDS011;48953;53.110;5.592;2023-05-20T03:13:25;18.38;;;7.40;;
62861;SDS011;48953;53.110;5.592;2023-05-20T03:15:52;12.10;;;5.35;;
62861;SDS011;48953;53.110;5.592;2023-05-20T03:18:18;16.52;;;5.60;;
62861;SDS011;48953;53.110;5.592;2023-05-20T03:20:45;16.38;;;6.85;;
62861;SDS011;48953;53.110;5.592;2023-05-20T03:23:11;9.55;;;4.70;;
62861;SDS011;48953;53.110;5.592;2023-05-20T03:25:37;9.60;;;5.03;;
62861;SDS011;48953;53.110;5.592;2023-05-20T03:28:03;13.48;;;6.35;;
62861;SDS011;48953;53.110;5.592;2023-05-20T03:30:30;9.60;;;5.97;;
62861;SDS011;48953;53.110;5.592;2023-05-20T03:32:57;13.68;;;6.97;;
62861;SDS011;48953;53.110;5.592;2023-05-20T03:35:23;14.18;;;6.50;;
62861;SDS011;48953;53.110;5.592;2023-05-20T03:37:49;14.23;;;6.47;;
62861;SDS011;48953;53.110;5.592;2023-05-20T03:40:18;13.07;;;5.72;;
62861;SDS011;48953;53.110;5.592;2023-05-20T03:42:45;14.38;;;5.60;;
62861;SDS011;48953;53.110;5.592;2023-05-20T03:45:11;14.93;;;6.78;;
62861;SDS011;48953;53.110;5.592;2023-05-20T03:47:37;14.35;;;6.43;;
62861;SDS011;48953;53.110;5.592;2023-05-20T03:50:03;11.38;;;5.57;;
62861;SDS011;48953;53.110;5.592;2023-05-20T03:52:37;13.40;;;6.10;;
62861;SDS011;48953;53.110;5.592;2023-05-20T03:57:34;11.93;;;6.65;;
62861;SDS011;48953;53.110;5.592;2023-05-20T04:00:00;13.43;;;6.90;;
62861;SDS011;48953;53.110;5.592;2023-05-20T04:02:29;15.80;;;7.10;;
62861;SDS011;48953;53.110;5.592;2023-05-20T04:04:55;12.35;;;6.88;;
62861;SDS011;48953;53.110;5.592;2023-05-20T04:07:28;13.95;;;6.43;;
62861;SDS011;48953;53.110;5.592;2023-05-20T04:09:54;11.05;;;6.05;;
62861;SDS011;48953;53.110;5.592;2023-05-20T04:12:20;11.85;;;6.05;;
62861;SDS011;48953;53.110;5.592;2023-05-20T04:14:46;13.52;;;6.45;;
62861;SDS011;48953;53.110;5.592;2023-05-20T04:17:14;12.25;;;6.10;;
62861;SDS011;48953;53.110;5.592;2023-05-20T04:19:40;12.00;;;6.18;;
62861;SDS011;48953;53.110;5.592;2023-05-20T04:22:06;12.13;;;6.18;;
62861;SDS011;48953;53.110;5.592;2023-05-20T04:24:32;10.13;;;6.28;;
62861;SDS011;48953;53.110;5.592;2023-05-20T04:26:58;13.50;;;6.40;;
62861;SDS011;48953;53.110;5.592;2023-05-20T04:29:24;13.32;;;6.70;;
62861;SDS011;48953;53.110;5.592;2023-05-20T04:31:50;11.70;;;5.97;;
62861;SDS011;48953;53.110;5.592;2023-05-20T04:34:17;16.77;;;6.82;;
62861;SDS011;48953;53.110;5.592;2023-05-20T04:36:44;9.88;;;5.15;;
62861;SDS011;48953;53.110;5.592;2023-05-20T04:39:10;9.73;;;6.20;;
62861;SDS011;48953;53.110;5.592;2023-05-20T04:41:36;7.57;;;4.97;;
62861;SDS011;48953;53.110;5.592;2023-05-20T04:44:03;9.35;;;5.30;;
62861;SDS011;48953;53.110;5.592;2023-05-20T04:46:30;13.02;;;5.38;;
62861;SDS011;48953;53.110;5.592;2023-05-20T04:48:57;11.15;;;6.90;;
62861;SDS011;48953;53.110;5.592;2023-05-20T04:51:23;8.95;;;4.88;;
62861;SDS011;48953;53.110;5.592;2023-05-20T04:53:57;9.18;;;5.30;;
62861;SDS011;48953;53.110;5.592;2023-05-20T04:56:23;10.73;;;5.15;;
62861;SDS011;48953;53.110;5.592;2023-05-20T04:58:50;10.55;;;4.85;;
62861;SDS011;48953;53.110;5.592;2023-05-20T05:01:16;6.45;;;3.92;;
62861;SDS011;48953;53.110;5.592;2023-05-20T05:03:42;8.30;;;4.68;;
62861;SDS011;48953;53.110;5.592;2023-05-20T05:06:08;7.57;;;4.35;;
62861;SDS011;48953;53.110;5.592;2023-05-20T05:08:34;7.63;;;4.47;;
62861;SDS011;48953;53.110;5.592;2023-05-20T05:11:00;7.68;;;4.55;;
62861;SDS011;48953;53.110;5.592;2023-05-20T05:13:26;5.85;;;3.65;;
62861;SDS011;48953;53.110;5.592;2023-05-20T05:15:58;7.28;;;3.55;;
62861;SDS011;48953;53.110;5.592;2023-05-20T05:18:24;5.97;;;3.35;;
62861;SDS011;48953;53.110;5.592;2023-05-20T05:20:57;3.97;;;3.05;;
62861;SDS011;48953;53.110;5.592;2023-05-20T05:23:23;5.90;;;3.13;;
62861;SDS011;48953;53.110;5.592;2023-05-20T05:25:52;3.75;;;2.88;;
62861;SDS011;48953;53.110;5.592;2023-05-20T05:28:18;3.83;;;2.28;;
62861;SDS011;48953;53.110;5.592;2023-05-20T05:30:45;3.53;;;2.40;;
62861;SDS011;48953;53.110;5.592;2023-05-20T05:33:10;3.78;;;2.20;;
62861;SDS011;48953;53.110;5.592;2023-05-20T05:35:41;2.58;;;2.35;;
62861;SDS011;48953;53.110;5.592;2023-05-20T05:38:08;3.97;;;2.20;;
62861;SDS011;48953;53.110;5.592;2023-05-20T05:40:34;3.55;;;2.10;;
62861;SDS011;48953;53.110;5.592;2023-05-20T05:43:00;3.97;;;2.10;;
62861;SDS011;48953;53.110;5.592;2023-05-20T05:45:26;4.55;;;2.10;;
62861;SDS011;48953;53.110;5.592;2023-05-20T05:47:53;2.50;;;1.70;;
62861;SDS011;48953;53.110;5.592;2023-05-20T05:50:19;2.92;;;2.10;;
62861;SDS011;48953;53.110;5.592;2023-05-20T05:52:45;3.45;;;1.90;;
62861;SDS011;48953;53.110;5.592;2023-05-20T05:55:11;2.63;;;2.00;;
62861;SDS011;48953;53.110;5.592;2023-05-20T05:57:37;5.90;;;2.25;;
62861;SDS011;48953;53.110;5.592;2023-05-20T06:00:03;2.20;;;1.90;;
62861;SDS011;48953;53.110;5.592;2023-05-20T06:02:29;4.15;;;1.60;;
62861;SDS011;48953;53.110;5.592;2023-05-20T06:05:00;3.83;;;2.20;;
62861;SDS011;48953;53.110;5.592;2023-05-20T06:07:26;2.95;;;1.95;;
62861;SDS011;48953;53.110;5.592;2023-05-20T06:09:52;4.40;;;1.88;;
62861;SDS011;48953;53.110;5.592;2023-05-20T06:12:18;5.50;;;2.15;;
62861;SDS011;48953;53.110;5.592;2023-05-20T06:14:44;2.65;;;2.00;;
62861;SDS011;48953;53.110;5.592;2023-05-20T06:17:10;3.03;;;1.63;;
62861;SDS011;48953;53.110;5.592;2023-05-20T06:19:36;3.30;;;2.00;;
62861;SDS011;48953;53.110;5.592;2023-05-20T06:22:02;4.97;;;1.77;;
62861;SDS011;48953;53.110;5.592;2023-05-20T06:24:28;1.25;;;1.15;;
62861;SDS011;48953;53.110;5.592;2023-05-20T06:26:54;2.28;;;1.80;;
62861;SDS011;48953;53.110;5.592;2023-05-20T06:29:20;3.25;;;1.48;;
62861;SDS011;48953;53.110;5.592;2023-05-20T06:31:46;2.13;;;1.65;;
62861;SDS011;48953;53.110;5.592;2023-05-20T06:34:12;2.08;;;1.27;;
62861;SDS011;48953;53.110;5.592;2023-05-20T06:36:37;3.60;;;1.50;;
62861;SDS011;48953;53.110;5.592;2023-05-20T06:39:03;2.97;;;1.67;;
62861;SDS011;48953;53.110;5.592;2023-05-20T06:41:35;2.03;;;1.45;;
62861;SDS011;48953;53.110;5.592;2023-05-20T06:44:01;1.83;;;1.17;;
62861;SDS011;48953;53.110;5.592;2023-05-20T06:46:27;1.98;;;1.50;;
62861;SDS011;48953;53.110;5.592;2023-05-20T06:48:53;1.70;;;1.60;;
62861;SDS011;48953;53.110;5.592;2023-05-20T06:51:19;2.25;;;1.23;;
62861;SDS011;48953;53.110;5.592;2023-05-20T06:53:45;1.40;;;1.30;;
62861;SDS011;48953;53.110;5.592;2023-05-20T06:56:11;2.33;;;1.63;;
62861;SDS011;48953;53.110;5.592;2023-05-20T06:58:37;1.92;;;1.40;;
62861;SDS011;48953;53.110;5.592;2023-05-20T07:01:03;3.30;;;1.55;;
62861;SDS011;48953;53.110;5.592;2023-05-20T07:03:29;1.90;;;1.63;;
62861;SDS011;48953;53.110;5.592;2023-05-20T07:05:55;1.65;;;1.48;;
62861;SDS011;48953;53.110;5.592;2023-05-20T07:08:21;4.22;;;1.33;;
62861;SDS011;48953;53.110;5.592;2023-05-20T07:10:47;2.58;;;1.25;;
62861;SDS011;48953;53.110;5.592;2023-05-20T07:13:13;3.42;;;1.30;;
62861;SDS011;48953;53.110;5.592;2023-05-20T07:15:39;1.38;;;1.20;;
62861;SDS011;48953;53.110;5.592;2023-05-20T07:18:05;3.25;;;1.20;;
62861;SDS011;48953;53.110;5.592;2023-05-20T07:20:31;2.65;;;1.33;;
62861;SDS011;48953;53.110;5.592;2023-05-20T07:22:57;1.77;;;1.02;;
62861;SDS011;48953;53.110;5.592;2023-05-20T07:25:24;2.15;;;1.10;;
62861;SDS011;48953;53.110;5.592;2023-05-20T07:27:50;1.05;;;0.60;;
62861;SDS011;48953;53.110;5.592;2023-05-20T07:30:16;1.17;;;1.05;;
62861;SDS011;48953;53.110;5.592;2023-05-20T07:32:42;1.65;;;1.02;;
62861;SDS011;48953;53.110;5.592;2023-05-20T07:35:08;1.05;;;0.90;;
62861;SDS011;48953;53.110;5.592;2023-05-20T07:37:34;2.97;;;0.95;;
62861;SDS011;48953;53.110;5.592;2023-05-20T07:40:00;2.47;;;1.00;;
62861;SDS011;48953;53.110;5.592;2023-05-20T07:42:27;2.67;;;0.80;;
62861;SDS011;48953;53.110;5.592;2023-05-20T07:44:53;1.15;;;0.82;;
62861;SDS011;48953;53.110;5.592;2023-05-20T07:47:19;1.77;;;1.00;;
62861;SDS011;48953;53.110;5.592;2023-05-20T07:49:45;1.83;;;0.85;;
62861;SDS011;48953;53.110;5.592;2023-05-20T07:52:11;4.43;;;0.98;;
62861;SDS011;48953;53.110;5.592;2023-05-20T07:54:37;1.08;;;0.90;;
62861;SDS011;48953;53.110;5.592;2023-05-20T07:57:03;3.03;;;1.25;;
62861;SDS011;48953;53.110;5.592;2023-05-20T07:59:29;3.50;;;1.02;;
62861;SDS011;48953;53.110;5.592;2023-05-20T08:01:55;2.90;;;1.05;;
62861;SDS011;48953;53.110;5.592;2023-05-20T08:04:21;2.15;;;0.95;;
62861;SDS011;48953;53.110;5.592;2023-05-20T08:06:47;4.15;;;1.00;;
62861;SDS011;48953;53.110;5.592;2023-05-20T08:09:14;1.20;;;0.80;;
62861;SDS011;48953;53.110;5.592;2023-05-20T08:11:42;3.40;;;1.15;;
62861;SDS011;48953;53.110;5.592;2023-05-20T08:14:07;1.83;;;0.77;;
62861;SDS011;48953;53.110;5.592;2023-05-20T08:16:34;2.25;;;1.00;;
62861;SDS011;48953;53.110;5.592;2023-05-20T08:19:01;1.17;;;1.00;;
62861;SDS011;48953;53.110;5.592;2023-05-20T08:21:27;2.53;;;0.98;;
62861;SDS011;48953;53.110;5.592;2023-05-20T08:23:53;2.45;;;1.63;;
62861;SDS011;48953;53.110;5.592;2023-05-20T08:26:19;2.83;;;1.20;;
62861;SDS011;48953;53.110;5.592;2023-05-20T08:28:48;2.17;;;1.35;;
62861;SDS011;48953;53.110;5.592;2023-05-20T08:31:14;2.08;;;1.10;;
62861;SDS011;48953;53.110;5.592;2023-05-20T08:33:41;2.17;;;1.00;;
62861;SDS011;48953;53.110;5.592;2023-05-20T08:36:07;2.83;;;1.20;;
62861;SDS011;48953;53.110;5.592;2023-05-20T08:38:33;3.92;;;1.02;;
62861;SDS011;48953;53.110;5.592;2023-05-20T08:41:00;1.75;;;1.17;;
62861;SDS011;48953;53.110;5.592;2023-05-20T08:43:26;2.95;;;1.30;;
62861;SDS011;48953;53.110;5.592;2023-05-20T08:45:54;3.47;;;1.30;;
62861;SDS011;48953;53.110;5.592;2023-05-20T08:48:24;0.77;;;0.70;;
62861;SDS011;48953;53.110;5.592;2023-05-20T08:50:52;1.17;;;0.75;;
62861;SDS011;48953;53.110;5.592;2023-05-20T08:53:19;2.10;;;1.20;;
62861;SDS011;48953;53.110;5.592;2023-05-20T08:55:56;1.40;;;1.17;;
62861;SDS011;48953;53.110;5.592;2023-05-20T08:58:29;3.70;;;1.00;;
62861;SDS011;48953;53.110;5.592;2023-05-20T09:00:56;1.75;;;1.05;;
62861;SDS011;48953;53.110;5.592;2023-05-20T09:03:22;2.05;;;0.70;;
62861;SDS011;48953;53.110;5.592;2023-05-20T09:05:49;2.20;;;0.95;;
62861;SDS011;48953;53.110;5.592;2023-05-20T09:08:15;3.35;;;1.00;;
62861;SDS011;48953;53.110;5.592;2023-05-20T09:10:41;2.05;;;0.85;;
62861;SDS011;48953;53.110;5.592;2023-05-20T09:13:08;2.25;;;0.82;;
62861;SDS011;48953;53.110;5.592;2023-05-20T09:15:35;2.17;;;0.82;;
62861;SDS011;48953;53.110;5.592;2023-05-20T09:18:01;1.67;;;0.80;;
62861;SDS011;48953;53.110;5.592;2023-05-20T09:20:28;2.97;;;1.08;;
62861;SDS011;48953;53.110;5.592;2023-05-20T09:22:57;2.90;;;1.05;;
62861;SDS011;48953;53.110;5.592;2023-05-20T09:27:50;1.00;;;0.90;;
62861;SDS011;48953;53.110;5.592;2023-05-20T09:30:19;0.90;;;0.68;;
62861;SDS011;48953;53.110;5.592;2023-05-20T09:32:52;1.27;;;0.90;;
62861;SDS011;48953;53.110;5.592;2023-05-20T09:35:19;1.98;;;0.80;;
62861;SDS011;48953;53.110;5.592;2023-05-20T09:37:45;1.42;;;0.88;;
62861;SDS011;48953;53.110;5.592;2023-05-20T09:40:11;2.15;;;0.90;;
62861;SDS011;48953;53.110;5.592;2023-05-20T09:42:41;1.90;;;1.10;;
62861;SDS011;48953;53.110;5.592;2023-05-20T09:45:08;3.28;;;1.10;;
62861;SDS011;48953;53.110;5.592;2023-05-20T09:47:36;1.33;;;1.00;;
62861;SDS011;48953;53.110;5.592;2023-05-20T09:50:03;2.15;;;1.10;;
62861;SDS011;48953;53.110;5.592;2023-05-20T09:52:31;2.78;;;0.90;;
62861;SDS011;48953;53.110;5.592;2023-05-20T09:54:59;2.42;;;1.02;;
62861;SDS011;48953;53.110;5.592;2023-05-20T09:57:29;1.67;;;0.85;;
62861;SDS011;48953;53.110;5.592;2023-05-20T09:59:55;4.47;;;1.00;;
62861;SDS011;48953;53.110;5.592;2023-05-20T10:02:21;1.63;;;0.95;;
62861;SDS011;48953;53.110;5.592;2023-05-20T10:04:48;3.47;;;1.02;;
62861;SDS011;48953;53.110;5.592;2023-05-20T10:09:54;3.33;;;0.80;;
62861;SDS011;48953;53.110;5.592;2023-05-20T10:12:33;4.32;;;1.10;;
62861;SDS011;48953;53.110;5.592;2023-05-20T10:15:11;1.23;;;0.80;;
62861;SDS011;48953;53.110;5.592;2023-05-20T10:20:11;4.35;;;1.27;;
62861;SDS011;48953;53.110;5.592;2023-05-20T10:22:37;1.52;;;1.40;;
62861;SDS011;48953;53.110;5.592;2023-05-20T10:25:10;2.72;;;1.50;;
62861;SDS011;48953;53.110;5.592;2023-05-20T10:27:45;1.92;;;1.00;;
62861;SDS011;48953;53.110;5.592;2023-05-20T10:30:18;2.13;;;1.23;;
62861;SDS011;48953;53.110;5.592;2023-05-20T10:32:48;2.55;;;1.10;;
62861;SDS011;48953;53.110;5.592;2023-05-20T10:35:19;3.20;;;1.52;;
62861;SDS011;48953;53.110;5.592;2023-05-20T10:37:45;2.08;;;1.20;;
62861;SDS011;48953;53.110;5.592;2023-05-20T10:40:12;2.15;;;1.20;;
62861;SDS011;48953;53.110;5.592;2023-05-20T10:42:39;3.33;;;1.33;;
62861;SDS011;48953;53.110;5.592;2023-05-20T10:45:06;3.33;;;1.50;;
62861;SDS011;48953;53.110;5.592;2023-05-20T10:47:32;5.70;;;1.70;;
62861;SDS011;48953;53.110;5.592;2023-05-20T10:49:58;3.83;;;1.40;;
62861;SDS011;48953;53.110;5.592;2023-05-20T10:52:33;2.45;;;1.30;;
62861;SDS011;48953;53.110;5.592;2023-05-20T10:55:00;3.15;;;1.25;;
62861;SDS011;48953;53.110;5.592;2023-05-20T10:57:29;3.60;;;1.40;;
62861;SDS011;48953;53.110;5.592;2023-05-20T10:59:58;3.85;;;1.70;;
62861;SDS011;48953;53.110;5.592;2023-05-20T11:02:25;2.65;;;1.83;;
62861;SDS011;48953;53.110;5.592;2023-05-20T11:04:52;7.90;;;1.48;;
62861;SDS011;48953;53.110;5.592;2023-05-20T11:07:28;1.50;;;1.33;;
62861;SDS011;48953;53.110;5.592;2023-05-20T11:09:54;3.45;;;1.48;;
62861;SDS011;48953;53.110;5.592;2023-05-20T11:12:21;5.95;;;2.03;;
62861;SDS011;48953;53.110;5.592;2023-05-20T11:14:48;4.85;;;2.05;;
62861;SDS011;48953;53.110;5.592;2023-05-20T11:17:14;2.75;;;1.73;;
62861;SDS011;48953;53.110;5.592;2023-05-20T11:19:43;2.88;;;1.70;;
62861;SDS011;48953;53.110;5.592;2023-05-20T11:22:09;3.53;;;1.55;;
62861;SDS011;48953;53.110;5.592;2023-05-20T11:24:36;3.05;;;1.67;;
62861;SDS011;48953;53.110;5.592;2023-05-20T11:27:08;8.77;;;2.13;;
62861;SDS011;48953;53.110;5.592;2023-05-20T11:29:34;6.00;;;2.25;;
62861;SDS011;48953;53.110;5.592;2023-05-20T11:32:00;2.75;;;1.40;;
62861;SDS011;48953;53.110;5.592;2023-05-20T11:34:32;5.03;;;2.63;;
62861;SDS011;48953;53.110;5.592;2023-05-20T11:36:58;3.25;;;1.73;;
62861;SDS011;48953;53.110;5.592;2023-05-20T11:39:24;3.38;;;1.80;;
62861;SDS011;48953;53.110;5.592;2023-05-20T11:41:56;4.60;;;1.50;;
62861;SDS011;48953;53.110;5.592;2023-05-20T11:44:23;1.92;;;1.35;;
62861;SDS011;48953;53.110;5.592;2023-05-20T11:46:49;3.20;;;1.73;;
62861;SDS011;48953;53.110;5.592;2023-05-20T11:49:15;5.95;;;1.95;;
62861;SDS011;48953;53.110;5.592;2023-05-20T11:51:42;6.15;;;2.13;;
62861;SDS011;48953;53.110;5.592;2023-05-20T11:54:08;6.80;;;1.85;;
62861;SDS011;48953;53.110;5.592;2023-05-20T11:56:38;2.30;;;1.40;;
62861;SDS011;48953;53.110;5.592;2023-05-20T11:59:07;5.15;;;1.30;;
62861;SDS011;48953;53.110;5.592;2023-05-20T12:01:35;3.35;;;1.92;;
62861;SDS011;48953;53.110;5.592;2023-05-20T12:04:03;3.65;;;1.85;;
62861;SDS011;48953;53.110;5.592;2023-05-20T12:06:29;2.38;;;1.70;;
62861;SDS011;48953;53.110;5.592;2023-05-20T12:08:55;4.25;;;2.03;;
62861;SDS011;48953;53.110;5.592;2023-05-20T12:11:21;3.95;;;1.65;;
62861;SDS011;48953;53.110;5.592;2023-05-20T12:13:47;4.43;;;1.83;;
62861;SDS011;48953;53.110;5.592;2023-05-20T12:16:14;3.60;;;1.48;;
62861;SDS011;48953;53.110;5.592;2023-05-20T12:18:40;3.67;;;1.85;;
62861;SDS011;48953;53.110;5.592;2023-05-20T12:21:06;3.67;;;1.88;;
62861;SDS011;48953;53.110;5.592;2023-05-20T12:23:32;5.00;;;2.17;;
62861;SDS011;48953;53.110;5.592;2023-05-20T12:25:58;4.32;;;2.35;;
62861;SDS011;48953;53.110;5.592;2023-05-20T12:28:25;3.83;;;2.33;;
62861;SDS011;48953;53.110;5.592;2023-05-20T12:30:50;5.90;;;2.08;;
62861;SDS011;48953;53.110;5.592;2023-05-20T12:33:16;5.60;;;1.85;;
62861;SDS011;48953;53.110;5.592;2023-05-20T12:35:44;2.70;;;1.80;;
62861;SDS011;48953;53.110;5.592;2023-05-20T12:38:10;2.08;;;1.45;;
62861;SDS011;48953;53.110;5.592;2023-05-20T12:40:36;3.05;;;1.92;;
62861;SDS011;48953;53.110;5.592;2023-05-20T12:43:03;3.80;;;1.67;;
62861;SDS011;48953;53.110;5.592;2023-05-20T12:45:29;3.28;;;1.70;;
62861;SDS011;48953;53.110;5.592;2023-05-20T12:47:55;5.10;;;2.30;;
62861;SDS011;48953;53.110;5.592;2023-05-20T12:50:21;2.78;;;2.08;;
62861;SDS011;48953;53.110;5.592;2023-05-20T12:52:47;6.72;;;1.75;;
62861;SDS011;48953;53.110;5.592;2023-05-20T12:55:13;5.10;;;2.20;;
62861;SDS011;48953;53.110;5.592;2023-05-20T12:57:40;5.32;;;2.42;;
62861;SDS011;48953;53.110;5.592;2023-05-20T13:00:06;4.68;;;2.25;;
62861;SDS011;48953;53.110;5.592;2023-05-20T13:02:33;5.13;;;2.38;;
62861;SDS011;48953;53.110;5.592;2023-05-20T13:04:59;4.57;;;1.73;;
62861;SDS011;48953;53.110;5.592;2023-05-20T13:07:27;3.38;;;2.53;;
62861;SDS011;48953;53.110;5.592;2023-05-20T13:09:55;5.45;;;2.35;;
62861;SDS011;48953;53.110;5.592;2023-05-20T13:12:21;5.32;;;2.33;;
62861;SDS011;48953;53.110;5.592;2023-05-20T13:14:47;5.15;;;2.13;;
62861;SDS011;48953;53.110;5.592;2023-05-20T13:17:12;6.60;;;2.47;;
62861;SDS011;48953;53.110;5.592;2023-05-20T13:19:39;3.75;;;1.42;;
62861;SDS011;48953;53.110;5.592;2023-05-20T13:22:05;3.63;;;1.90;;
62861;SDS011;48953;53.110;5.592;2023-05-20T13:24:32;5.85;;;2.63;;
62861;SDS011;48953;53.110;5.592;2023-05-20T13:26:58;4.43;;;2.28;;
62861;SDS011;48953;53.110;5.592;2023-05-20T13:29:25;6.93;;;2.78;;
62861;SDS011;48953;53.110;5.592;2023-05-20T13:31:51;8.85;;;2.90;;
62861;SDS011;48953;53.110;5.592;2023-05-20T13:34:17;4.45;;;2.35;;
62861;SDS011;48953;53.110;5.592;2023-05-20T13:36:43;4.97;;;2.10;;
62861;SDS011;48953;53.110;5.592;2023-05-20T13:39:11;5.32;;;1.98;;
62861;SDS011;48953;53.110;5.592;2023-05-20T13:41:38;4.25;;;2.63;;
62861;SDS011;48953;53.110;5.592;2023-05-20T13:44:04;5.20;;;2.42;;
62861;SDS011;48953;53.110;5.592;2023-05-20T13:46:30;4.15;;;2.47;;
62861;SDS011;48953;53.110;5.592;2023-05-20T13:48:56;3.25;;;1.67;;
62861;SDS011;48953;53.110;5.592;2023-05-20T13:51:22;4.80;;;2.13;;
62861;SDS011;48953;53.110;5.592;2023-05-20T13:53:48;3.60;;;1.85;;
62861;SDS011;48953;53.110;5.592;2023-05-20T13:56:14;4.95;;;2.10;;
62861;SDS011;48953;53.110;5.592;2023-05-20T13:58:40;4.70;;;2.30;;
62861;SDS011;48953;53.110;5.592;2023-05-20T14:01:06;5.13;;;2.17;;
62861;SDS011;48953;53.110;5.592;2023-05-20T14:03:32;4.00;;;2.95;;
62861;SDS011;48953;53.110;5.592;2023-05-20T14:06:00;4.50;;;2.25;;
62861;SDS011;48953;53.110;5.592;2023-05-20T14:08:26;3.15;;;2.03;;
62861;SDS011;48953;53.110;5.592;2023-05-20T14:10:52;7.78;;;2.65;;
62861;SDS011;48953;53.110;5.592;2023-05-20T14:13:22;3.53;;;2.08;;
62861;SDS011;48953;53.110;5.592;2023-05-20T14:15:48;6.03;;;3.00;;
62861;SDS011;48953;53.110;5.592;2023-05-20T14:18:15;5.53;;;3.08;;
62861;SDS011;48953;53.110;5.592;2023-05-20T14:20:41;4.40;;;2.45;;
62861;SDS011;48953;53.110;5.592;2023-05-20T14:23:07;3.92;;;2.50;;
62861;SDS011;48953;53.110;5.592;2023-05-20T14:25:33;6.53;;;2.17;;
62861;SDS011;48953;53.110;5.592;2023-05-20T14:27:59;12.10;;;4.40;;
62861;SDS011;48953;53.110;5.592;2023-05-20T14:30:31;3.60;;;1.90;;
62861;SDS011;48953;53.110;5.592;2023-05-20T14:32:57;4.28;;;2.03;;
62861;SDS011;48953;53.110;5.592;2023-05-20T14:35:23;4.55;;;2.25;;
62861;SDS011;48953;53.110;5.592;2023-05-20T14:37:50;2.20;;;1.60;;
62861;SDS011;48953;53.110;5.592;2023-05-20T14:40:16;2.00;;;1.27;;
62861;SDS011;48953;53.110;5.592;2023-05-20T14:42:42;2.58;;;1.35;;
62861;SDS011;48953;53.110;5.592;2023-05-20T14:45:08;5.03;;;2.20;;
62861;SDS011;48953;53.110;5.592;2023-05-20T14:47:35;3.35;;;1.45;;
62861;SDS011;48953;53.110;5.592;2023-05-20T14:50:03;1.80;;;1.30;;
62861;SDS011;48953;53.110;5.592;2023-05-20T14:52:29;4.20;;;1.50;;
62861;SDS011;48953;53.110;5.592;2023-05-20T14:54:55;1.70;;;1.20;;